Antonito, Colorado
Current Conditions -  °F | °C
As of 8:52 AM on Sunday 23 Nov 2014 (Local Time) from KALS Reporting Station
Broken Clouds Broken Clouds  
Wind Chill: 24°   Ceiling: 12000
Heat Index: 32°   Visibility: 10mi
Dew Point: 22°   Wind: 9mph
Humidity: 66%   Direction: 350°N
Pressure: 29.76"   Gusts: NA
Location:  37.08°N, 106.01°W
Report Text: KALS 231552Z AUTO 35008KT 10SM BKN120 00/M06 A2976 RMK AO2 SLP087 T00001056
Loading
Personal Weather Stations






























Interactive Weather Map New forecast layout! Learn more

10-Day Weather Forecast

Advertisements
Track Severe Weather on mobile